Terminal Aerodrome Forecast (TAF)

TAF

Updated on: Thu 30 May 2024 at 10:04:37PM VUT Local time - UTC time: 2024-05-30 11:04:37Z


TAF NVSC 301100Z 3012/3112 17015G25KT 9999 SCT020 BKN040 PROB40 INTER 3012/3018 9000 SHRA BKN018 OVC040

TAF NVSG 301100Z 3012/3112 15015G25KT 9999 SCT020 BKN040 PROB40 INTER 3012/3018 9000 SHRA BKN018 OVC040

TAF NVSS 301100Z 3012/3112 13015G25KT 9999 SCT020 BKN040 PROB40 INTER 3012/3018 9000 SHRA BKN018

TAF NVSP 301100Z 3012/3112 12015G25KT 9999 SCT020 BKN110 PROB40 INTER 3012/3018 9000 SHRA BKN018

TAF NVSL 301100Z 3012/3112 13015G25KT 9999 SCT020 BKN110 PROB40 INTER 3012/3018 9000 SHRA BKN018

TAF NVVV 301100Z 3012/3112 11015G25KT 9999 SCT020 PROB30 INTER 3012/3018 9000 SHRA BKN018

TAF NVVW 301100Z 3012/3112 13015G25KT 9999 SCT020 PROB30 INTER 3012/3018 9000 SHRA BKN018

TAF NVVA 301100Z 3012/3112 09015G25KT 9999 SCT020 PRO30 INTER 3012/3018 9000 SHRA BKN018